Latest Weather Observations for Smithton

IDT60801

Issued at 4:32 pm EDT Sunday 26 February 2017 (issued every 30 minutes, with the page automatically refreshed every 10 minutes)

About weather observations | Map of weather stations | Latest weather observations for TAS | Other Formats
Station Details ID: 091292 Name: SMITHTON AERODROME Lat: -40.83 Lon: 145.08 Height: 7.5 m
Data from the previous 72 hours. | See also: Recent months at Smithton
Date/Time
EDT
Temp
°C
App
Temp
°C
Dew
Point
°C
Rel
Hum
%
Delta-T
°C
Wind Press
QNH
hPa
Press
MSL
hPa
Rain since
9am
mm
Dir  Spd
km/h
Gust
km/h
Spd
kts
Gust
kts
26/04:30pm 19.4 13.6 11.4 60 4.4 ENE 33 43 18 23 1024.2 - 0.0
26/04:00pm 19.7 13.7 12.0 61 4.3 ENE 35 46 19 25 1024.3 - 0.0
26/03:30pm 19.4 13.4 12.2 63 4.0 ENE 35 48 19 26 1024.5 - 0.0
26/03:00pm 20.2 15.1 11.9 59 4.6 ENE 30 39 16 21 1024.8 1024.8 0.0
26/02:30pm 20.2 14.7 11.9 59 4.6 ENE 32 41 17 22 1025.1 - 0.0
26/02:00pm 19.8 14.1 11.3 58 4.7 ENE 32 41 17 22 1025.4 - 0.0
26/01:30pm 20.4 14.9 11.9 58 4.7 ENE 32 41 17 22 1025.4 - 0.0
26/01:00pm 20.0 14.5 10.7 55 5.1 ENE 30 43 16 23 1025.8 - 0.0
26/12:30pm 20.0 14.9 12.0 60 4.5 ENE 30 37 16 20 1026.0 - 0.0
26/12:00pm 19.5 14.2 11.3 59 4.5 E 30 39 16 21 1026.3 1026.3 0.0
26/11:30am 19.4 14.9 12.7 65 3.8 NE 28 37 15 20 1026.4 - 0.0
26/11:00am 19.1 14.7 12.8 67 3.5 ENE 28 39 15 21 1026.5 - 0.0
26/10:30am 18.7 14.2 12.7 68 3.4 ENE 28 41 15 22 1026.5 - 0.0
26/10:00am 18.5 14.1 12.9 70 3.1 NE 28 37 15 20 1026.5 - 0.0
26/09:30am 17.9 13.8 12.8 72 2.8 NE 26 33 14 18 1026.2 - 0.0
26/09:00am 16.5 14.7 16.0 97 0.3 NE 20 30 11 16 1026.0 1026.0 0.0
26/08:30am 12.0 11.2 11.8 99 0.1 S 7 9 4 5 1026.0 - 0.0
26/08:00am 10.3 8.6 10.0 98 0.2 SSE 9 11 5 6 1025.9 - 0.0
26/07:30am 7.8 6.5 7.5 98 0.1 SSW 4 9 2 5 1025.5 - 0.0
26/07:00am 7.1 5.6 6.8 98 0.1 S 4 6 2 3 1025.4 - 0.0
26/06:30am 7.3 6.6 7.0 98 0.1 CALM 0 0 0 0 1025.2 - 0.0
26/06:00am 7.8 5.1 7.4 97 0.2 SSW 11 11 6 6 1025.0 1025.0 0.0
26/05:30am 8.0 5.7 7.6 97 0.2 S 9 11 5 6 1024.8 - 0.0
26/05:00am 8.1 6.2 7.7 97 0.2 ESE 7 9 4 5 1024.6 - 0.0
26/04:30am 8.3 7.0 7.7 96 0.3 SSE 4 7 2 4 1024.5 - 0.0
26/04:00am 9.5 8.1 8.9 96 0.3 SSE 6 7 3 4 1024.9 - 0.0
26/03:30am 10.3 9.5 9.7 96 0.3 SSE 4 6 2 3 1025.0 - 0.0
26/03:00am 9.9 8.0 9.1 95 0.4 SSE 9 9 5 5 1025.4 1025.4 0.0
26/02:30am 10.9 11.0 10.0 94 0.5 CALM 0 0 0 0 1025.1 - 0.0
26/02:00am 11.4 10.3 10.1 92 0.7 ESE 6 6 3 3 1025.7 - 0.0
26/01:30am 13.4 13.0 12.3 93 0.6 ESE 6 7 3 4 1025.8 - 0.0
26/01:00am 13.8 12.9 12.7 93 0.6 S 9 11 5 6 1026.3 - 0.0
26/12:30am 13.9 13.4 12.8 93 0.6 S 7 9 4 5 1026.6 - 0.0
26/12:00am 14.1 13.7 13.0 93 0.6 S 7 9 4 5 1026.6 1026.6 0.0
 
Date/Time
EDT
Temp
°C
App
Temp
°C
Dew
Point
°C
Rel
Hum
%
Delta-T
°C
Wind Press
QNH
hPa
Press
MSL
hPa
Rain since
9am
mm
Dir  Spd
km/h
Gust
km/h
Spd
kts
Gust
kts
25/11:30pm 14.0 13.6 12.9 93 0.6 S 7 7 4 4 1026.5 - 0.0
25/11:00pm 13.9 13.4 12.8 93 0.6 SE 7 11 4 6 1026.6 - 0.0
25/10:30pm 13.5 14.3 12.4 93 0.6 CALM 0 0 0 0 1026.3 - 0.0
25/10:00pm 12.6 13.0 11.2 91 0.7 CALM 0 0 0 0 1026.4 - 0.0
25/09:30pm 13.2 13.3 11.6 90 0.9 ENE 2 6 1 3 1026.2 - 0.0
25/09:00pm 13.4 12.5 11.5 88 1.0 ENE 7 9 4 5 1025.9 1025.9 0.0
25/08:30pm 14.2 12.6 11.7 85 1.3 NE 11 13 6 7 1025.6 - 0.0
25/08:00pm 15.9 15.4 12.6 81 1.8 NNE 7 9 4 5 1025.8 - 0.0
25/07:30pm 16.3 15.8 12.8 80 1.9 NNE 7 9 4 5 1025.6 - 0.0
25/07:00pm 16.6 15.7 12.6 77 2.2 NNE 9 13 5 7 1025.6 - 0.0
25/06:30pm 16.8 15.0 12.1 74 2.6 NE 13 17 7 9 1025.4 - 0.0
25/06:00pm 16.7 14.0 11.6 72 2.8 NE 17 22 9 12 1025.1 1025.1 0.0
25/05:30pm 18.7 15.7 12.7 68 3.4 NE 20 26 11 14 1025.1 - 0.0
25/05:00pm 17.9 14.6 11.7 67 3.4 NNE 20 28 11 15 1025.4 - 0.0
25/04:30pm 18.3 15.3 11.8 66 3.6 NE 19 24 10 13 1025.5 - 0.0
25/04:00pm 17.2 14.0 11.2 68 3.2 ENE 19 24 10 13 1025.6 - 0.0
25/03:30pm 17.4 13.5 10.8 65 3.5 ENE 22 30 12 16 1025.7 - 0.0
25/03:00pm 17.6 13.6 10.5 63 3.8 ENE 22 28 12 15 1025.9 1025.9 0.0
25/02:30pm 18.8 15.1 11.6 63 4.0 E 22 30 12 16 1026.1 - 0.0
25/02:00pm 18.5 14.2 10.8 61 4.2 E 24 33 13 18 1026.1 - 0.0
25/01:30pm 17.1 12.6 10.2 64 3.7 ENE 24 32 13 17 1026.1 - 0.0
25/01:00pm 17.5 13.9 10.4 63 3.8 ENE 20 26 11 14 1026.2 - 0.0
25/12:30pm 17.8 13.3 10.2 61 4.0 ENE 24 33 13 18 1026.2 - 0.0
25/12:00pm 17.6 13.2 10.5 63 3.8 ENE 24 32 13 17 1026.1 1026.1 0.0
25/11:30am 17.1 12.9 9.8 62 3.8 ENE 22 32 12 17 1026.2 - 0.0
25/11:00am 17.1 13.5 9.8 62 3.8 E 19 24 10 13 1026.4 - 0.0
25/10:30am 15.6 11.9 8.1 61 3.8 S 17 22 9 12 1026.4 - 0.0
25/10:00am 15.3 11.0 7.8 61 3.7 S 20 26 11 14 1026.4 - 0.0
25/09:30am 14.1 9.2 6.9 62 3.5 S 22 28 12 15 1026.2 - 0.0
25/09:00am 12.8 7.6 5.7 62 3.3 S 22 28 12 15 1025.9 1025.9 0.0
25/08:30am 12.4 7.3 6.2 66 2.9 S 22 32 12 17 1025.8 - 0.0
25/08:00am 11.4 6.6 5.7 68 2.6 S 20 28 11 15 1025.9 - 0.0
25/07:30am 10.9 6.1 5.7 70 2.4 S 20 26 11 14 1025.6 - 0.0
25/07:00am 11.0 6.2 5.5 69 2.5 SSW 20 26 11 14 1025.4 - 0.0
25/06:30am 10.8 6.0 5.8 71 2.3 SSW 20 28 11 15 1024.9 - 0.0
25/06:00am 10.7 5.9 5.7 71 2.3 SSW 20 26 11 14 1024.6 1024.6 0.0
25/05:30am 10.6 6.0 5.4 70 2.4 SSW 19 24 10 13 1024.4 - 0.0
25/05:00am 10.6 6.0 5.6 71 2.3 SSW 19 24 10 13 1024.3 - 0.0
25/04:30am 10.7 6.1 5.7 71 2.3 SSW 19 24 10 13 1024.4 - 0.0
25/04:00am 11.0 5.9 6.2 72 2.2 SSW 22 28 12 15 1024.7 - 0.0
25/03:30am 10.9 5.5 6.3 73 2.2 SSW 24 32 13 17 1024.7 - 0.0
25/03:00am 10.9 5.9 6.5 74 2.1 SSW 22 30 12 16 1024.7 1024.7 0.0
25/02:30am 11.0 5.7 6.6 74 2.1 SSW 24 32 13 17 1024.7 - 0.0
25/02:00am 10.8 5.9 6.9 77 1.8 SSW 22 30 12 16 1025.1 - 0.0
25/01:30am 10.8 6.9 6.9 77 1.8 SSW 17 20 9 11 1025.3 - 0.0
25/01:00am 11.3 7.0 6.8 74 2.1 S 19 22 10 12 1025.1 - 0.0
25/12:30am 11.4 6.9 6.9 74 2.1 SSW 20 28 11 15 1025.0 - 0.0
25/12:00am 11.4 6.9 7.1 75 2.0 SSW 20 28 11 15 1025.1 1025.1 0.0
 
Date/Time
EDT
Temp
°C
App
Temp
°C
Dew
Point
°C
Rel
Hum
%
Delta-T
°C
Wind Press
QNH
hPa
Press
MSL
hPa
Rain since
9am
mm
Dir  Spd
km/h
Gust
km/h
Spd
kts
Gust
kts
24/11:30pm 11.1 6.8 7.8 80 1.6 SSW 20 26 11 14 1025.2 - 0.0
24/11:00pm 11.3 7.2 8.0 80 1.6 SW 19 24 10 13 1025.5 - 0.0
24/10:30pm 10.6 7.2 7.5 81 1.5 SSW 15 19 8 10 1025.7 - 0.0
24/10:00pm 11.3 7.2 8.0 80 1.6 SSW 19 22 10 12 1025.6 - 0.0
24/09:30pm 12.1 7.5 8.2 77 1.9 SSW 22 28 12 15 1025.5 - 0.0
24/09:00pm 12.4 8.2 8.1 75 2.1 SW 20 28 11 15 1025.0 1025.0 0.0
24/08:30pm 13.0 8.9 8.7 75 2.2 SW 20 28 11 15 1024.6 - 0.0
24/08:00pm 13.6 9.3 9.5 76 2.1 SSW 22 30 12 16 1024.3 - 0.0
24/07:30pm 14.7 10.0 9.3 70 2.8 SSW 24 32 13 17 1024.0 - 0.0
24/07:00pm 16.0 10.6 9.4 65 3.4 SW 28 37 15 20 1023.7 - 0.0
24/06:30pm 17.2 12.2 9.6 61 4.0 SW 26 35 14 19 1023.6 - 0.0
24/06:00pm 17.8 13.2 11.1 65 3.6 SW 26 33 14 18 1023.3 1023.3 0.0
24/05:30pm 16.9 10.6 9.6 62 3.8 SW 33 41 18 22 1023.1 - 0.0
24/05:00pm 17.4 12.4 11.0 66 3.4 SW 28 37 15 20 1022.8 - 0.0
24/04:30pm 17.5 11.4 9.7 60 4.1 SW 32 41 17 22 1022.6 - 0.0
24/04:00pm 19.5 13.4 10.5 56 4.9 SW 33 44 18 24 1022.5 - 0.0
24/03:30pm 18.7 13.0 9.8 56 4.7 SW 30 43 16 23 1022.4 - 0.0
24/03:00pm 18.1 12.2 10.5 61 4.1 SW 32 41 17 22 1022.9 1022.9 0.0
24/02:30pm 18.4 10.8 8.9 54 4.9 SW 39 50 21 27 1023.0 - 0.0
24/02:00pm 19.4 12.8 9.9 54 5.1 SW 35 48 19 26 1022.9 - 0.0
24/01:30pm 18.8 12.2 8.7 52 5.2 SW 33 46 18 25 1022.8 - 0.0
24/01:00pm 18.7 12.5 9.5 55 4.9 SW 32 43 17 23 1023.0 - 0.0
24/12:30pm 18.5 12.4 9.8 57 4.6 WSW 32 46 17 25 1023.0 - 0.0
24/12:00pm 17.5 11.8 9.9 61 4.0 SW 30 43 16 23 1023.4 1023.4 0.0
24/11:30am 17.6 11.3 9.0 57 4.5 WSW 32 41 17 22 1023.4 - 0.0
24/11:00am 17.6 14.1 10.9 65 3.6 SW 20 30 11 16 1023.4 - 0.0
24/10:30am 15.9 10.9 9.6 66 3.3 SW 26 35 14 19 1023.7 - 0.0
24/10:00am 15.7 12.5 9.8 68 3.1 WSW 17 24 9 13 1023.4 - 0.0
24/09:30am 14.8 11.9 9.6 71 2.7 WSW 15 19 8 10 1023.4 - 0.0
24/09:00am 14.4 11.8 9.4 72 2.6 WSW 13 17 7 9 1023.2 1023.2 0.2
24/08:30am 14.0 11.0 9.2 73 2.4 WSW 15 19 8 10 1022.8 - 0.2
24/08:00am 13.5 11.1 9.9 79 1.9 W 13 15 7 8 1022.5 - 0.2
24/07:30am 12.8 10.6 9.4 80 1.7 W 11 13 6 7 1022.2 - 0.2
24/07:00am 12.4 10.2 9.2 81 1.6 WSW 11 13 6 7 1022.0 - 0.2
24/06:30am 12.2 9.5 9.0 81 1.6 WSW 13 13 7 7 1021.8 - 0.2
24/06:00am 12.0 9.6 8.8 81 1.6 WSW 11 13 6 7 1021.6 1021.6 0.2
24/05:30am 12.1 9.4 8.8 80 1.6 W 13 15 7 8 1021.3 - 0.2
24/05:00am 11.8 9.1 8.8 82 1.5 WSW 13 15 7 8 1021.1 - 0.2
24/04:30am 11.5 8.3 8.4 81 1.5 WSW 15 17 8 9 1021.2 - 0.2
24/04:00am 12.0 9.0 9.2 83 1.4 WSW 15 17 8 9 1021.2 - 0.2
24/03:30am 11.9 9.0 9.6 86 1.2 W 15 19 8 10 1021.1 - 0.2
24/03:00am 10.7 7.9 8.6 87 1.0 W 13 15 7 8 1021.2 1021.2 0.2
24/02:30am 11.6 8.8 9.9 89 0.9 W 15 17 8 9 1021.5 - 0.2
24/02:00am 9.5 6.8 7.3 86 1.0 WSW 11 11 6 6 1021.3 - 0.2
24/01:30am 11.4 8.6 8.6 83 1.4 WSW 13 15 7 8 1021.4 - 0.2
24/01:00am 12.5 9.7 10.0 85 1.3 WSW 15 17 8 9 1021.6 - 0.2
24/12:30am 12.2 9.5 10.3 88 1.0 WSW 15 17 8 9 1021.8 - 0.2
24/12:00am 12.8 10.4 11.4 91 0.7 WSW 15 17 8 9 1021.9 1021.9 0.2
 
Date/Time
EDT
Temp
°C
App
Temp
°C
Dew
Point
°C
Rel
Hum
%
Delta-T
°C
Wind Press
QNH
hPa
Press
MSL
hPa
Rain since
9am
mm
Dir  Spd
km/h
Gust
km/h
Spd
kts
Gust
kts
23/11:30pm 13.2 11.0 12.1 93 0.6 WSW 15 17 8 9 1022.0 - 0.2
23/11:00pm 13.2 11.5 12.3 94 0.5 WSW 13 15 7 8 1021.8 - 0.2
23/10:30pm 13.4 11.3 12.5 94 0.5 WSW 15 20 8 11 1021.7 - 0.2
23/10:00pm 13.5 10.7 12.6 94 0.5 SW 19 26 10 14 1021.5 - 0.2
23/09:30pm 13.6 10.8 12.7 94 0.5 SW 19 26 10 14 1021.1 - 0.2
23/09:00pm 13.7 10.4 12.8 94 0.5 WSW 22 30 12 16 1020.6 1020.6 0.2
23/08:30pm 13.9 10.7 13.0 94 0.5 SW 22 32 12 17 1020.0 - 0.2
23/08:00pm 14.4 10.9 13.3 93 0.6 SW 24 32 13 17 1019.5 - 0.2
23/07:30pm 14.9 11.1 13.6 92 0.7 WSW 26 35 14 19 1018.9 - 0.2
23/07:00pm 15.4 10.8 13.6 89 1.0 WSW 30 39 16 21 1018.5 - 0.2
23/06:30pm 16.8 12.1 13.3 80 2.0 WSW 30 39 16 21 1018.0 - 0.2
23/06:00pm 17.1 12.7 12.8 76 2.4 WSW 28 35 15 19 1017.5 1017.5 0.2
23/05:30pm 17.4 13.1 13.3 77 2.3 WSW 28 41 15 22 1017.2 - 0.2
23/05:00pm 17.4 13.5 13.3 77 2.3 WSW 26 32 14 17 1016.7 - 0.2

Other Formats:

Comma delimited format used in spreadsheet applications
http://www.bom.gov.au/fwo/IDT60801/IDT60801.94953.axf

JavaScript Object Notation format (JSON) in row-major order
http://www.bom.gov.au/fwo/IDT60801/IDT60801.94953.json